sensor_id;sensor_type;location;lat;lon;timestamp;P1;durP1;ratioP1;P2;durP2;ratioP2
23628;SDS011;11991;57.150;-2.134;2022-08-25T00:02:14;0.50;;;0.50;;
23628;SDS011;11991;57.150;-2.134;2022-08-25T00:04:43;0.73;;;0.40;;
23628;SDS011;11991;57.150;-2.134;2022-08-25T00:07:19;0.88;;;0.68;;
23628;SDS011;11991;57.150;-2.134;2022-08-25T00:09:46;0.85;;;0.50;;
23628;SDS011;11991;57.150;-2.134;2022-08-25T00:12:14;0.75;;;0.50;;
23628;SDS011;11991;57.150;-2.134;2022-08-25T00:14:41;1.17;;;0.52;;
23628;SDS011;11991;57.150;-2.134;2022-08-25T00:17:09;0.40;;;0.40;;
23628;SDS011;11991;57.150;-2.134;2022-08-25T00:19:36;0.60;;;0.57;;
23628;SDS011;11991;57.150;-2.134;2022-08-25T00:22:05;0.47;;;0.43;;
23628;SDS011;11991;57.150;-2.134;2022-08-25T00:24:33;1.95;;;0.68;;
23628;SDS011;11991;57.150;-2.134;2022-08-25T00:27:01;0.50;;;0.50;;
23628;SDS011;11991;57.150;-2.134;2022-08-25T00:29:29;1.58;;;0.65;;
23628;SDS011;11991;57.150;-2.134;2022-08-25T00:31:57;0.50;;;0.40;;
23628;SDS011;11991;57.150;-2.134;2022-08-25T00:34:28;0.38;;;0.38;;
23628;SDS011;11991;57.150;-2.134;2022-08-25T00:37:00;0.40;;;0.40;;
23628;SDS011;11991;57.150;-2.134;2022-08-25T00:39:30;0.40;;;0.40;;
23628;SDS011;11991;57.150;-2.134;2022-08-25T00:41:57;0.32;;;0.32;;
23628;SDS011;11991;57.150;-2.134;2022-08-25T00:44:26;0.55;;;0.50;;
23628;SDS011;11991;57.150;-2.134;2022-08-25T00:46:57;0.65;;;0.60;;
23628;SDS011;11991;57.150;-2.134;2022-08-25T00:49:35;1.23;;;0.60;;
23628;SDS011;11991;57.150;-2.134;2022-08-25T00:52:06;0.85;;;0.60;;
23628;SDS011;11991;57.150;-2.134;2022-08-25T00:54:48;1.20;;;0.73;;
23628;SDS011;11991;57.150;-2.134;2022-08-25T00:57:22;0.60;;;0.60;;
23628;SDS011;11991;57.150;-2.134;2022-08-25T01:00:00;1.05;;;0.68;;
23628;SDS011;11991;57.150;-2.134;2022-08-25T01:02:34;0.82;;;0.70;;
23628;SDS011;11991;57.150;-2.134;2022-08-25T01:05:02;0.88;;;0.68;;
23628;SDS011;11991;57.150;-2.134;2022-08-25T01:07:30;1.35;;;0.70;;
23628;SDS011;11991;57.150;-2.134;2022-08-25T01:09:58;1.15;;;0.80;;
23628;SDS011;11991;57.150;-2.134;2022-08-25T01:12:26;1.08;;;0.73;;
23628;SDS011;11991;57.150;-2.134;2022-08-25T01:14:54;1.02;;;0.60;;
23628;SDS011;11991;57.150;-2.134;2022-08-25T01:17:22;0.85;;;0.65;;
23628;SDS011;11991;57.150;-2.134;2022-08-25T01:19:53;1.30;;;0.77;;
23628;SDS011;11991;57.150;-2.134;2022-08-25T01:22:21;1.08;;;0.60;;
23628;SDS011;11991;57.150;-2.134;2022-08-25T01:25:03;0.70;;;0.70;;
23628;SDS011;11991;57.150;-2.134;2022-08-25T01:27:38;1.40;;;0.80;;
23628;SDS011;11991;57.150;-2.134;2022-08-25T01:30:06;1.27;;;0.75;;
23628;SDS011;11991;57.150;-2.134;2022-08-25T01:32:33;0.50;;;0.50;;
23628;SDS011;11991;57.150;-2.134;2022-08-25T01:35:01;0.73;;;0.70;;
23628;SDS011;11991;57.150;-2.134;2022-08-25T01:37:28;1.17;;;0.80;;
23628;SDS011;11991;57.150;-2.134;2022-08-25T01:39:59;0.80;;;0.80;;
23628;SDS011;11991;57.150;-2.134;2022-08-25T01:45:18;0.80;;;0.70;;
23628;SDS011;11991;57.150;-2.134;2022-08-25T01:47:47;0.73;;;0.70;;
23628;SDS011;11991;57.150;-2.134;2022-08-25T01:50:14;0.68;;;0.68;;
23628;SDS011;11991;57.150;-2.134;2022-08-25T01:52:48;0.80;;;0.73;;
23628;SDS011;11991;57.150;-2.134;2022-08-25T01:55:17;0.60;;;0.60;;
23628;SDS011;11991;57.150;-2.134;2022-08-25T01:57:44;2.05;;;0.70;;
23628;SDS011;11991;57.150;-2.134;2022-08-25T02:00:13;1.10;;;0.70;;
23628;SDS011;11991;57.150;-2.134;2022-08-25T02:02:44;1.35;;;0.73;;
23628;SDS011;11991;57.150;-2.134;2022-08-25T02:05:17;1.08;;;0.70;;
23628;SDS011;11991;57.150;-2.134;2022-08-25T02:07:49;1.98;;;0.80;;
23628;SDS011;11991;57.150;-2.134;2022-08-25T02:10:16;1.55;;;0.80;;
23628;SDS011;11991;57.150;-2.134;2022-08-25T02:12:44;0.68;;;0.68;;
23628;SDS011;11991;57.150;-2.134;2022-08-25T02:15:11;0.68;;;0.60;;
23628;SDS011;11991;57.150;-2.134;2022-08-25T02:17:39;0.57;;;0.57;;
23628;SDS011;11991;57.150;-2.134;2022-08-25T02:20:06;0.70;;;0.70;;
23628;SDS011;11991;57.150;-2.134;2022-08-25T02:22:35;0.93;;;0.70;;
23628;SDS011;11991;57.150;-2.134;2022-08-25T02:25:03;0.47;;;0.47;;
23628;SDS011;11991;57.150;-2.134;2022-08-25T02:27:31;1.13;;;0.73;;
23628;SDS011;11991;57.150;-2.134;2022-08-25T02:29:59;0.77;;;0.70;;
23628;SDS011;11991;57.150;-2.134;2022-08-25T02:32:26;0.90;;;0.65;;
23628;SDS011;11991;57.150;-2.134;2022-08-25T02:34:53;1.50;;;0.68;;
23628;SDS011;11991;57.150;-2.134;2022-08-25T02:37:20;1.25;;;0.77;;
23628;SDS011;11991;57.150;-2.134;2022-08-25T02:39:48;0.50;;;0.50;;
23628;SDS011;11991;57.150;-2.134;2022-08-25T02:42:15;0.60;;;0.50;;
23628;SDS011;11991;57.150;-2.134;2022-08-25T02:44:43;0.75;;;0.70;;
23628;SDS011;11991;57.150;-2.134;2022-08-25T02:47:10;0.73;;;0.68;;
23628;SDS011;11991;57.150;-2.134;2022-08-25T02:49:37;0.70;;;0.70;;
23628;SDS011;11991;57.150;-2.134;2022-08-25T02:52:04;0.63;;;0.60;;
23628;SDS011;11991;57.150;-2.134;2022-08-25T02:54:32;1.42;;;0.80;;
23628;SDS011;11991;57.150;-2.134;2022-08-25T02:57:00;1.02;;;0.88;;
23628;SDS011;11991;57.150;-2.134;2022-08-25T02:59:28;0.98;;;0.80;;
23628;SDS011;11991;57.150;-2.134;2022-08-25T03:01:55;1.45;;;0.80;;
23628;SDS011;11991;57.150;-2.134;2022-08-25T03:04:23;0.60;;;0.60;;
23628;SDS011;11991;57.150;-2.134;2022-08-25T03:06:50;0.95;;;0.70;;
23628;SDS011;11991;57.150;-2.134;2022-08-25T03:09:18;0.60;;;0.60;;
23628;SDS011;11991;57.150;-2.134;2022-08-25T03:11:45;0.75;;;0.70;;
23628;SDS011;11991;57.150;-2.134;2022-08-25T03:14:12;0.70;;;0.70;;
23628;SDS011;11991;57.150;-2.134;2022-08-25T03:16:40;0.68;;;0.60;;
23628;SDS011;11991;57.150;-2.134;2022-08-25T03:19:11;0.82;;;0.70;;
23628;SDS011;11991;57.150;-2.134;2022-08-25T03:21:39;0.80;;;0.60;;
23628;SDS011;11991;57.150;-2.134;2022-08-25T03:24:06;0.73;;;0.60;;
23628;SDS011;11991;57.150;-2.134;2022-08-25T03:26:33;0.75;;;0.70;;
23628;SDS011;11991;57.150;-2.134;2022-08-25T03:29:19;0.52;;;0.52;;
23628;SDS011;11991;57.150;-2.134;2022-08-25T03:31:51;0.60;;;0.60;;
23628;SDS011;11991;57.150;-2.134;2022-08-25T03:34:21;1.15;;;0.85;;
23628;SDS011;11991;57.150;-2.134;2022-08-25T03:36:49;0.80;;;0.80;;
23628;SDS011;11991;57.150;-2.134;2022-08-25T03:39:19;0.88;;;0.73;;
23628;SDS011;11991;57.150;-2.134;2022-08-25T03:41:48;0.82;;;0.80;;
23628;SDS011;11991;57.150;-2.134;2022-08-25T03:44:17;0.90;;;0.80;;
23628;SDS011;11991;57.150;-2.134;2022-08-25T03:46:48;0.82;;;0.75;;
23628;SDS011;11991;57.150;-2.134;2022-08-25T03:49:18;1.00;;;0.90;;
23628;SDS011;11991;57.150;-2.134;2022-08-25T03:51:49;1.15;;;0.80;;
23628;SDS011;11991;57.150;-2.134;2022-08-25T03:54:19;0.75;;;0.70;;
23628;SDS011;11991;57.150;-2.134;2022-08-25T03:56:49;1.25;;;0.68;;
23628;SDS011;11991;57.150;-2.134;2022-08-25T03:59:16;0.60;;;0.57;;
23628;SDS011;11991;57.150;-2.134;2022-08-25T04:01:44;0.70;;;0.65;;
23628;SDS011;11991;57.150;-2.134;2022-08-25T04:04:18;1.63;;;0.70;;
23628;SDS011;11991;57.150;-2.134;2022-08-25T04:06:46;0.77;;;0.77;;
23628;SDS011;11991;57.150;-2.134;2022-08-25T04:09:13;0.73;;;0.70;;
23628;SDS011;11991;57.150;-2.134;2022-08-25T04:11:40;1.08;;;0.70;;
23628;SDS011;11991;57.150;-2.134;2022-08-25T04:14:08;0.65;;;0.65;;
23628;SDS011;11991;57.150;-2.134;2022-08-25T04:16:42;2.60;;;0.90;;
23628;SDS011;11991;57.150;-2.134;2022-08-25T04:19:10;1.65;;;0.88;;
23628;SDS011;11991;57.150;-2.134;2022-08-25T04:21:38;1.08;;;0.85;;
23628;SDS011;11991;57.150;-2.134;2022-08-25T04:24:07;0.70;;;0.70;;
23628;SDS011;11991;57.150;-2.134;2022-08-25T04:26:37;0.80;;;0.77;;
23628;SDS011;11991;57.150;-2.134;2022-08-25T04:29:08;1.35;;;0.88;;
23628;SDS011;11991;57.150;-2.134;2022-08-25T04:31:38;0.75;;;0.75;;
23628;SDS011;11991;57.150;-2.134;2022-08-25T04:34:06;0.82;;;0.77;;
23628;SDS011;11991;57.150;-2.134;2022-08-25T04:36:54;0.85;;;0.68;;
23628;SDS011;11991;57.150;-2.134;2022-08-25T04:39:22;0.73;;;0.73;;
23628;SDS011;11991;57.150;-2.134;2022-08-25T04:41:49;0.70;;;0.70;;
23628;SDS011;11991;57.150;-2.134;2022-08-25T04:44:17;0.60;;;0.60;;
23628;SDS011;11991;57.150;-2.134;2022-08-25T04:46:44;1.13;;;0.52;;
23628;SDS011;11991;57.150;-2.134;2022-08-25T04:49:11;0.50;;;0.50;;
23628;SDS011;11991;57.150;-2.134;2022-08-25T04:51:39;1.23;;;0.60;;
23628;SDS011;11991;57.150;-2.134;2022-08-25T04:54:08;1.23;;;0.60;;
23628;SDS011;11991;57.150;-2.134;2022-08-25T04:56:40;0.60;;;0.60;;
23628;SDS011;11991;57.150;-2.134;2022-08-25T04:59:08;0.50;;;0.50;;
23628;SDS011;11991;57.150;-2.134;2022-08-25T05:01:38;0.63;;;0.60;;
23628;SDS011;11991;57.150;-2.134;2022-08-25T05:04:08;0.90;;;0.70;;
23628;SDS011;11991;57.150;-2.134;2022-08-25T05:06:54;0.85;;;0.70;;
23628;SDS011;11991;57.150;-2.134;2022-08-25T05:09:23;1.02;;;0.68;;
23628;SDS011;11991;57.150;-2.134;2022-08-25T05:11:51;0.80;;;0.70;;
23628;SDS011;11991;57.150;-2.134;2022-08-25T05:14:19;0.70;;;0.70;;
23628;SDS011;11991;57.150;-2.134;2022-08-25T05:16:52;0.75;;;0.70;;
23628;SDS011;11991;57.150;-2.134;2022-08-25T05:19:21;1.73;;;0.77;;
23628;SDS011;11991;57.150;-2.134;2022-08-25T05:21:52;0.77;;;0.70;;
23628;SDS011;11991;57.150;-2.134;2022-08-25T05:24:23;0.80;;;0.80;;
23628;SDS011;11991;57.150;-2.134;2022-08-25T05:26:51;1.02;;;0.70;;
23628;SDS011;11991;57.150;-2.134;2022-08-25T05:29:18;0.70;;;0.70;;
23628;SDS011;11991;57.150;-2.134;2022-08-25T05:31:45;0.52;;;0.52;;
23628;SDS011;11991;57.150;-2.134;2022-08-25T05:34:16;0.77;;;0.68;;
23628;SDS011;11991;57.150;-2.134;2022-08-25T05:36:45;0.60;;;0.60;;
23628;SDS011;11991;57.150;-2.134;2022-08-25T05:39:13;0.80;;;0.80;;
23628;SDS011;11991;57.150;-2.134;2022-08-25T05:41:41;1.23;;;0.80;;
23628;SDS011;11991;57.150;-2.134;2022-08-25T05:44:08;1.75;;;0.77;;
23628;SDS011;11991;57.150;-2.134;2022-08-25T05:46:35;0.80;;;0.60;;
23628;SDS011;11991;57.150;-2.134;2022-08-25T05:49:02;1.90;;;1.00;;
23628;SDS011;11991;57.150;-2.134;2022-08-25T05:51:30;0.85;;;0.70;;
23628;SDS011;11991;57.150;-2.134;2022-08-25T05:53:57;0.90;;;0.50;;
23628;SDS011;11991;57.150;-2.134;2022-08-25T05:56:24;0.55;;;0.55;;
23628;SDS011;11991;57.150;-2.134;2022-08-25T05:58:52;1.25;;;0.70;;
23628;SDS011;11991;57.150;-2.134;2022-08-25T06:01:21;0.98;;;0.60;;
23628;SDS011;11991;57.150;-2.134;2022-08-25T06:04:12;0.65;;;0.60;;
23628;SDS011;11991;57.150;-2.134;2022-08-25T06:06:41;0.60;;;0.60;;
23628;SDS011;11991;57.150;-2.134;2022-08-25T06:09:08;1.00;;;0.65;;
23628;SDS011;11991;57.150;-2.134;2022-08-25T06:11:36;1.10;;;0.68;;
23628;SDS011;11991;57.150;-2.134;2022-08-25T06:14:08;0.82;;;0.82;;
23628;SDS011;11991;57.150;-2.134;2022-08-25T06:16:37;0.65;;;0.60;;
23628;SDS011;11991;57.150;-2.134;2022-08-25T06:19:06;0.70;;;0.70;;
23628;SDS011;11991;57.150;-2.134;2022-08-25T06:21:35;1.52;;;0.77;;
23628;SDS011;11991;57.150;-2.134;2022-08-25T06:24:06;0.85;;;0.70;;
23628;SDS011;11991;57.150;-2.134;2022-08-25T06:26:41;1.33;;;0.70;;
23628;SDS011;11991;57.150;-2.134;2022-08-25T06:29:09;0.70;;;0.70;;
23628;SDS011;11991;57.150;-2.134;2022-08-25T06:31:38;0.50;;;0.50;;
23628;SDS011;11991;57.150;-2.134;2022-08-25T06:34:05;0.95;;;0.88;;
23628;SDS011;11991;57.150;-2.134;2022-08-25T06:36:33;0.85;;;0.82;;
23628;SDS011;11991;57.150;-2.134;2022-08-25T06:39:00;0.75;;;0.70;;
23628;SDS011;11991;57.150;-2.134;2022-08-25T06:41:30;0.90;;;0.77;;
23628;SDS011;11991;57.150;-2.134;2022-08-25T06:44:03;0.85;;;0.82;;
23628;SDS011;11991;57.150;-2.134;2022-08-25T06:46:31;2.67;;;1.05;;
23628;SDS011;11991;57.150;-2.134;2022-08-25T06:49:03;1.30;;;0.90;;
23628;SDS011;11991;57.150;-2.134;2022-08-25T06:51:31;1.48;;;0.77;;
23628;SDS011;11991;57.150;-2.134;2022-08-25T06:54:01;1.05;;;0.70;;
23628;SDS011;11991;57.150;-2.134;2022-08-25T06:56:29;1.05;;;0.80;;
23628;SDS011;11991;57.150;-2.134;2022-08-25T06:58:57;1.02;;;0.80;;
23628;SDS011;11991;57.150;-2.134;2022-08-25T07:01:26;2.20;;;1.15;;
23628;SDS011;11991;57.150;-2.134;2022-08-25T07:03:58;1.17;;;1.08;;
23628;SDS011;11991;57.150;-2.134;2022-08-25T07:06:27;0.80;;;0.80;;
23628;SDS011;11991;57.150;-2.134;2022-08-25T07:09:02;1.58;;;0.90;;
23628;SDS011;11991;57.150;-2.134;2022-08-25T07:11:30;1.02;;;0.88;;
23628;SDS011;11991;57.150;-2.134;2022-08-25T07:14:03;1.20;;;0.68;;
23628;SDS011;11991;57.150;-2.134;2022-08-25T07:16:33;1.23;;;1.00;;
23628;SDS011;11991;57.150;-2.134;2022-08-25T07:19:02;1.10;;;1.00;;
23628;SDS011;11991;57.150;-2.134;2022-08-25T07:21:34;0.90;;;0.70;;
23628;SDS011;11991;57.150;-2.134;2022-08-25T07:24:05;0.85;;;0.85;;
23628;SDS011;11991;57.150;-2.134;2022-08-25T07:26:37;1.48;;;0.90;;
23628;SDS011;11991;57.150;-2.134;2022-08-25T07:29:16;0.60;;;0.60;;
23628;SDS011;11991;57.150;-2.134;2022-08-25T07:31:57;2.00;;;0.98;;
23628;SDS011;11991;57.150;-2.134;2022-08-25T07:34:25;1.27;;;0.70;;
23628;SDS011;11991;57.150;-2.134;2022-08-25T07:37:18;1.58;;;0.85;;
23628;SDS011;11991;57.150;-2.134;2022-08-25T07:40:08;1.30;;;0.77;;
23628;SDS011;11991;57.150;-2.134;2022-08-25T07:42:39;1.58;;;0.70;;
23628;SDS011;11991;57.150;-2.134;2022-08-25T07:45:07;2.13;;;0.95;;
23628;SDS011;11991;57.150;-2.134;2022-08-25T07:47:37;1.02;;;0.88;;
23628;SDS011;11991;57.150;-2.134;2022-08-25T07:50:06;1.10;;;0.90;;
23628;SDS011;11991;57.150;-2.134;2022-08-25T07:52:35;1.60;;;0.77;;
23628;SDS011;11991;57.150;-2.134;2022-08-25T07:55:04;0.73;;;0.73;;
23628;SDS011;11991;57.150;-2.134;2022-08-25T07:57:38;0.70;;;0.70;;
23628;SDS011;11991;57.150;-2.134;2022-08-25T08:00:07;1.10;;;1.00;;
23628;SDS011;11991;57.150;-2.134;2022-08-25T08:02:39;1.10;;;0.93;;
23628;SDS011;11991;57.150;-2.134;2022-08-25T08:05:07;1.83;;;1.10;;
23628;SDS011;11991;57.150;-2.134;2022-08-25T08:07:35;1.75;;;1.38;;
23628;SDS011;11991;57.150;-2.134;2022-08-25T08:10:10;2.42;;;1.00;;
23628;SDS011;11991;57.150;-2.134;2022-08-25T08:13:00;1.48;;;0.90;;
23628;SDS011;11991;57.150;-2.134;2022-08-25T08:15:28;1.75;;;1.08;;
23628;SDS011;11991;57.150;-2.134;2022-08-25T08:17:59;1.58;;;0.82;;
23628;SDS011;11991;57.150;-2.134;2022-08-25T08:20:28;1.58;;;1.15;;
23628;SDS011;11991;57.150;-2.134;2022-08-25T08:23:09;3.55;;;1.30;;
23628;SDS011;11991;57.150;-2.134;2022-08-25T08:25:37;0.90;;;0.90;;
23628;SDS011;11991;57.150;-2.134;2022-08-25T08:28:04;1.05;;;0.90;;
23628;SDS011;11991;57.150;-2.134;2022-08-25T08:30:33;0.80;;;0.80;;
23628;SDS011;11991;57.150;-2.134;2022-08-25T08:33:03;1.33;;;1.02;;
23628;SDS011;11991;57.150;-2.134;2022-08-25T08:35:38;1.05;;;1.00;;
23628;SDS011;11991;57.150;-2.134;2022-08-25T08:38:07;0.80;;;0.80;;
23628;SDS011;11991;57.150;-2.134;2022-08-25T08:40:47;1.23;;;0.90;;
23628;SDS011;11991;57.150;-2.134;2022-08-25T08:43:52;1.42;;;0.65;;
23628;SDS011;11991;57.150;-2.134;2022-08-25T08:46:27;0.93;;;0.70;;
23628;SDS011;11991;57.150;-2.134;2022-08-25T08:49:37;0.75;;;0.70;;
23628;SDS011;11991;57.150;-2.134;2022-08-25T08:57:51;0.85;;;0.63;;
23628;SDS011;11991;57.150;-2.134;2022-08-25T09:00:21;1.20;;;1.00;;
23628;SDS011;11991;57.150;-2.134;2022-08-25T09:02:51;1.58;;;0.73;;
23628;SDS011;11991;57.150;-2.134;2022-08-25T09:05:27;0.73;;;0.57;;
23628;SDS011;11991;57.150;-2.134;2022-08-25T09:07:59;1.30;;;0.90;;
23628;SDS011;11991;57.150;-2.134;2022-08-25T09:10:40;1.08;;;0.77;;
23628;SDS011;11991;57.150;-2.134;2022-08-25T09:17:10;1.13;;;0.80;;
23628;SDS011;11991;57.150;-2.134;2022-08-25T09:25:21;2.05;;;0.80;;
23628;SDS011;11991;57.150;-2.134;2022-08-25T09:31:03;3.28;;;1.20;;
23628;SDS011;11991;57.150;-2.134;2022-08-25T09:33:38;1.23;;;0.77;;
23628;SDS011;11991;57.150;-2.134;2022-08-25T09:36:07;0.70;;;0.70;;
23628;SDS011;11991;57.150;-2.134;2022-08-25T09:38:34;1.38;;;0.73;;
23628;SDS011;11991;57.150;-2.134;2022-08-25T09:41:02;1.98;;;0.80;;
23628;SDS011;11991;57.150;-2.134;2022-08-25T09:43:35;1.05;;;0.95;;
23628;SDS011;11991;57.150;-2.134;2022-08-25T09:51:29;1.27;;;1.08;;
23628;SDS011;11991;57.150;-2.134;2022-08-25T09:59:29;1.08;;;0.95;;
23628;SDS011;11991;57.150;-2.134;2022-08-25T10:02:04;1.83;;;0.80;;
23628;SDS011;11991;57.150;-2.134;2022-08-25T10:04:52;1.73;;;0.80;;
23628;SDS011;11991;57.150;-2.134;2022-08-25T10:07:29;1.48;;;0.98;;
23628;SDS011;11991;57.150;-2.134;2022-08-25T10:10:04;2.60;;;1.05;;
23628;SDS011;11991;57.150;-2.134;2022-08-25T10:12:44;1.55;;;0.85;;
23628;SDS011;11991;57.150;-2.134;2022-08-25T10:17:59;1.38;;;1.00;;
23628;SDS011;11991;57.150;-2.134;2022-08-25T10:20:42;1.45;;;0.95;;
23628;SDS011;11991;57.150;-2.134;2022-08-25T10:23:13;1.35;;;1.02;;
23628;SDS011;11991;57.150;-2.134;2022-08-25T10:25:42;1.55;;;1.10;;
23628;SDS011;11991;57.150;-2.134;2022-08-25T10:28:29;2.22;;;1.00;;
23628;SDS011;11991;57.150;-2.134;2022-08-25T10:31:08;2.65;;;1.42;;
23628;SDS011;11991;57.150;-2.134;2022-08-25T10:37:17;1.77;;;0.95;;
23628;SDS011;11991;57.150;-2.134;2022-08-25T10:39:45;1.13;;;0.90;;
23628;SDS011;11991;57.150;-2.134;2022-08-25T10:45:29;1.30;;;1.20;;
23628;SDS011;11991;57.150;-2.134;2022-08-25T10:51:01;1.20;;;1.10;;
23628;SDS011;11991;57.150;-2.134;2022-08-25T10:53:39;1.58;;;1.10;;
23628;SDS011;11991;57.150;-2.134;2022-08-25T10:56:33;1.90;;;1.02;;
23628;SDS011;11991;57.150;-2.134;2022-08-25T11:01:56;2.42;;;1.20;;
23628;SDS011;11991;57.150;-2.134;2022-08-25T11:07:19;1.15;;;0.88;;
23628;SDS011;11991;57.150;-2.134;2022-08-25T11:09:52;1.73;;;1.00;;
23628;SDS011;11991;57.150;-2.134;2022-08-25T11:14:57;4.15;;;1.95;;
23628;SDS011;11991;57.150;-2.134;2022-08-25T11:17:38;1.67;;;1.15;;
23628;SDS011;11991;57.150;-2.134;2022-08-25T11:23:39;2.38;;;1.30;;
23628;SDS011;11991;57.150;-2.134;2022-08-25T11:26:13;1.73;;;1.10;;
23628;SDS011;11991;57.150;-2.134;2022-08-25T11:31:28;1.45;;;1.00;;
23628;SDS011;11991;57.150;-2.134;2022-08-25T11:33:56;2.00;;;0.80;;
23628;SDS011;11991;57.150;-2.134;2022-08-25T11:36:27;1.23;;;0.90;;
23628;SDS011;11991;57.150;-2.134;2022-08-25T11:41:54;1.83;;;0.90;;
23628;SDS011;11991;57.150;-2.134;2022-08-25T11:50:30;1.85;;;1.05;;
23628;SDS011;11991;57.150;-2.134;2022-08-25T11:55:55;1.60;;;0.80;;
23628;SDS011;11991;57.150;-2.134;2022-08-25T11:58:39;0.95;;;0.90;;
23628;SDS011;11991;57.150;-2.134;2022-08-25T12:01:11;1.52;;;1.13;;
23628;SDS011;11991;57.150;-2.134;2022-08-25T12:10:20;1.10;;;1.00;;
23628;SDS011;11991;57.150;-2.134;2022-08-25T12:15:24;1.88;;;0.95;;
23628;SDS011;11991;57.150;-2.134;2022-08-25T12:23:30;1.17;;;1.00;;
23628;SDS011;11991;57.150;-2.134;2022-08-25T12:26:48;0.90;;;0.90;;
23628;SDS011;11991;57.150;-2.134;2022-08-25T12:29:06;1.20;;;1.02;;
23628;SDS011;11991;57.150;-2.134;2022-08-25T12:31:41;2.78;;;1.17;;
23628;SDS011;11991;57.150;-2.134;2022-08-25T12:37:13;1.25;;;1.00;;
23628;SDS011;11991;57.150;-2.134;2022-08-25T12:45:08;2.03;;;1.13;;
23628;SDS011;11991;57.150;-2.134;2022-08-25T12:47:52;1.40;;;1.13;;
23628;SDS011;11991;57.150;-2.134;2022-08-25T12:53:17;2.47;;;1.38;;
23628;SDS011;11991;57.150;-2.134;2022-08-25T12:55:59;2.45;;;1.25;;
23628;SDS011;11991;57.150;-2.134;2022-08-25T13:07:28;0.75;;;0.73;;
23628;SDS011;11991;57.150;-2.134;2022-08-25T13:10:07;1.10;;;0.80;;
23628;SDS011;11991;57.150;-2.134;2022-08-25T13:12:53;1.67;;;1.17;;
23628;SDS011;11991;57.150;-2.134;2022-08-25T13:15:37;1.58;;;0.68;;
23628;SDS011;11991;57.150;-2.134;2022-08-25T13:20:42;0.82;;;0.77;;
23628;SDS011;11991;57.150;-2.134;2022-08-25T13:23:11;1.88;;;0.90;;
23628;SDS011;11991;57.150;-2.134;2022-08-25T13:25:47;1.05;;;0.80;;
23628;SDS011;11991;57.150;-2.134;2022-08-25T13:28:21;1.08;;;0.70;;
23628;SDS011;11991;57.150;-2.134;2022-08-25T13:30:56;1.00;;;0.90;;
23628;SDS011;11991;57.150;-2.134;2022-08-25T13:33:25;1.17;;;0.90;;
23628;SDS011;11991;57.150;-2.134;2022-08-25T13:35:54;1.20;;;1.10;;
23628;SDS011;11991;57.150;-2.134;2022-08-25T13:38:41;0.95;;;0.70;;
23628;SDS011;11991;57.150;-2.134;2022-08-25T13:41:16;1.15;;;0.70;;
23628;SDS011;11991;57.150;-2.134;2022-08-25T13:43:46;0.90;;;0.80;;
23628;SDS011;11991;57.150;-2.134;2022-08-25T13:46:17;0.93;;;0.70;;
23628;SDS011;11991;57.150;-2.134;2022-08-25T13:48:46;0.65;;;0.60;;
23628;SDS011;11991;57.150;-2.134;2022-08-25T13:51:22;1.25;;;0.82;;
23628;SDS011;11991;57.150;-2.134;2022-08-25T13:54:04;2.53;;;1.25;;
23628;SDS011;11991;57.150;-2.134;2022-08-25T13:56:40;0.98;;;0.85;;
23628;SDS011;11991;57.150;-2.134;2022-08-25T13:59:19;1.27;;;1.08;;
23628;SDS011;11991;57.150;-2.134;2022-08-25T14:01:51;1.42;;;1.13;;
23628;SDS011;11991;57.150;-2.134;2022-08-25T14:09:55;1.60;;;1.15;;
23628;SDS011;11991;57.150;-2.134;2022-08-25T14:12:44;1.15;;;0.80;;
23628;SDS011;11991;57.150;-2.134;2022-08-25T14:17:44;2.17;;;1.25;;
23628;SDS011;11991;57.150;-2.134;2022-08-25T14:20:16;1.70;;;1.10;;
23628;SDS011;11991;57.150;-2.134;2022-08-25T14:22:56;2.22;;;1.10;;
23628;SDS011;11991;57.150;-2.134;2022-08-25T14:25:35;2.03;;;1.30;;
23628;SDS011;11991;57.150;-2.134;2022-08-25T14:28:12;1.48;;;1.25;;
23628;SDS011;11991;57.150;-2.134;2022-08-25T14:30:53;2.65;;;1.05;;
23628;SDS011;11991;57.150;-2.134;2022-08-25T14:33:27;3.17;;;1.65;;
23628;SDS011;11991;57.150;-2.134;2022-08-25T14:35:58;1.17;;;1.05;;
23628;SDS011;11991;57.150;-2.134;2022-08-25T14:38:29;1.27;;;1.17;;
23628;SDS011;11991;57.150;-2.134;2022-08-25T14:40:57;1.65;;;1.10;;
23628;SDS011;11991;57.150;-2.134;2022-08-25T14:43:25;1.33;;;1.15;;
23628;SDS011;11991;57.150;-2.134;2022-08-25T14:45:58;1.20;;;1.10;;
23628;SDS011;11991;57.150;-2.134;2022-08-25T14:48:30;1.55;;;1.05;;
23628;SDS011;11991;57.150;-2.134;2022-08-25T14:51:02;1.45;;;1.17;;
23628;SDS011;11991;57.150;-2.134;2022-08-25T14:53:30;1.05;;;0.80;;
23628;SDS011;11991;57.150;-2.134;2022-08-25T14:55:59;1.02;;;0.93;;
23628;SDS011;11991;57.150;-2.134;2022-08-25T14:58:34;1.70;;;0.77;;
23628;SDS011;11991;57.150;-2.134;2022-08-25T15:01:20;1.88;;;1.25;;
23628;SDS011;11991;57.150;-2.134;2022-08-25T15:06:55;1.52;;;1.20;;
23628;SDS011;11991;57.150;-2.134;2022-08-25T15:09:24;1.77;;;1.10;;
23628;SDS011;11991;57.150;-2.134;2022-08-25T15:11:59;1.98;;;1.10;;
23628;SDS011;11991;57.150;-2.134;2022-08-25T15:14:26;3.33;;;1.50;;
23628;SDS011;11991;57.150;-2.134;2022-08-25T15:16:58;1.42;;;0.93;;
23628;SDS011;11991;57.150;-2.134;2022-08-25T15:19:27;2.35;;;1.20;;
23628;SDS011;11991;57.150;-2.134;2022-08-25T15:21:55;4.07;;;1.77;;
23628;SDS011;11991;57.150;-2.134;2022-08-25T15:24:26;2.65;;;1.08;;
23628;SDS011;11991;57.150;-2.134;2022-08-25T15:26:55;1.85;;;1.50;;
23628;SDS011;11991;57.150;-2.134;2022-08-25T15:29:25;1.88;;;1.20;;
23628;SDS011;11991;57.150;-2.134;2022-08-25T15:31:55;1.85;;;1.10;;
23628;SDS011;11991;57.150;-2.134;2022-08-25T15:34:25;1.30;;;1.20;;
23628;SDS011;11991;57.150;-2.134;2022-08-25T15:36:53;1.60;;;1.33;;
23628;SDS011;11991;57.150;-2.134;2022-08-25T15:39:24;1.30;;;1.10;;
23628;SDS011;11991;57.150;-2.134;2022-08-25T15:41:52;1.10;;;1.00;;
23628;SDS011;11991;57.150;-2.134;2022-08-25T15:44:22;2.20;;;1.15;;
23628;SDS011;11991;57.150;-2.134;2022-08-25T15:46:55;1.48;;;1.38;;
23628;SDS011;11991;57.150;-2.134;2022-08-25T15:49:24;2.22;;;1.40;;
23628;SDS011;11991;57.150;-2.134;2022-08-25T15:51:55;1.00;;;0.95;;
23628;SDS011;11991;57.150;-2.134;2022-08-25T15:54:23;1.63;;;1.10;;
23628;SDS011;11991;57.150;-2.134;2022-08-25T15:56:52;1.85;;;1.27;;
23628;SDS011;11991;57.150;-2.134;2022-08-25T15:59:21;2.60;;;1.35;;
23628;SDS011;11991;57.150;-2.134;2022-08-25T16:01:50;1.58;;;1.17;;
23628;SDS011;11991;57.150;-2.134;2022-08-25T16:04:22;0.95;;;0.93;;
23628;SDS011;11991;57.150;-2.134;2022-08-25T16:06:52;1.13;;;1.08;;
23628;SDS011;11991;57.150;-2.134;2022-08-25T16:09:21;1.58;;;1.00;;
23628;SDS011;11991;57.150;-2.134;2022-08-25T16:11:49;0.88;;;0.65;;
23628;SDS011;11991;57.150;-2.134;2022-08-25T16:14:27;0.70;;;0.70;;
23628;SDS011;11991;57.150;-2.134;2022-08-25T16:16:55;0.68;;;0.57;;
23628;SDS011;11991;57.150;-2.134;2022-08-25T16:19:26;1.70;;;0.80;;
23628;SDS011;11991;57.150;-2.134;2022-08-25T16:21:54;0.60;;;0.50;;
23628;SDS011;11991;57.150;-2.134;2022-08-25T16:24:22;1.00;;;0.57;;
23628;SDS011;11991;57.150;-2.134;2022-08-25T16:26:50;0.65;;;0.52;;
23628;SDS011;11991;57.150;-2.134;2022-08-25T16:29:21;1.02;;;0.80;;
23628;SDS011;11991;57.150;-2.134;2022-08-25T16:31:48;0.60;;;0.60;;
23628;SDS011;11991;57.150;-2.134;2022-08-25T16:34:20;0.70;;;0.70;;
23628;SDS011;11991;57.150;-2.134;2022-08-25T16:36:56;0.70;;;0.60;;
23628;SDS011;11991;57.150;-2.134;2022-08-25T16:39:24;0.73;;;0.40;;
23628;SDS011;11991;57.150;-2.134;2022-08-25T16:41:52;0.88;;;0.70;;
23628;SDS011;11991;57.150;-2.134;2022-08-25T16:44:22;1.60;;;0.60;;
23628;SDS011;11991;57.150;-2.134;2022-08-25T16:46:54;1.08;;;0.60;;
23628;SDS011;11991;57.150;-2.134;2022-08-25T16:49:22;0.80;;;0.52;;
23628;SDS011;11991;57.150;-2.134;2022-08-25T16:51:53;0.70;;;0.43;;
23628;SDS011;11991;57.150;-2.134;2022-08-25T16:54:23;1.58;;;0.73;;
23628;SDS011;11991;57.150;-2.134;2022-08-25T16:57:10;0.68;;;0.68;;
23628;SDS011;11991;57.150;-2.134;2022-08-25T16:59:37;0.70;;;0.60;;